Time;durP1;ratioP1;P1;durP2;ratioP2;P2;SDS_P1;SDS_P2;PMS_P1;PMS_P2;Temp;Humidity;BMP_temperature;BMP_pressure;BME280_temperature;BME280_humidity;BME280_pressure;Samples;Min_cycle;Max_cycle;Signal;HPM_P1;HPM_P2
2021/07/27 00:00:54;;;;;;;3.77;3.47;;;17.70;99.90;;;;;;5014898;28;20293;-56
2021/07/27 00:03:19;;;;;;;4.07;3.67;;;17.60;99.90;;;;;;5013758;28;20248;-56
2021/07/27 00:05:45;;;;;;;6.53;3.77;;;17.50;99.90;;;;;;5020378;28;20179;-56
2021/07/27 00:08:11;;;;;;;4.60;3.63;;;17.50;99.90;;;;;;5011507;28;20182;-56
2021/07/27 00:10:38;;;;;;;4.83;4.33;;;17.50;99.90;;;;;;5010646;28;20312;-56
2021/07/27 00:13:05;;;;;;;4.47;4.07;;;17.50;99.90;;;;;;5016733;28;20186;-56
2021/07/27 00:15:31;;;;;;;5.30;4.15;;;17.30;99.90;;;;;;5015594;28;20174;-56
2021/07/27 00:17:57;;;;;;;4.50;3.85;;;17.30;99.90;;;;;;5016554;28;20186;-57
2021/07/27 00:20:23;;;;;;;6.50;4.00;;;17.50;99.90;;;;;;5015585;28;20205;-56
2021/07/27 00:22:48;;;;;;;4.23;3.90;;;17.60;99.90;;;;;;5023878;28;20431;-56
2021/07/27 00:25:14;;;;;;;3.97;3.57;;;17.60;99.90;;;;;;5019692;28;20192;-56
2021/07/27 00:27:41;;;;;;;7.22;3.63;;;17.50;99.90;;;;;;5014613;28;20543;-56
2021/07/27 00:30:07;;;;;;;6.03;4.05;;;17.50;99.90;;;;;;5020321;28;20542;-57
2021/07/27 00:32:40;;;;;;;4.50;4.10;;;17.40;99.90;;;;;;5020635;28;20198;-57
2021/07/27 00:35:06;;;;;;;5.22;3.95;;;17.50;99.90;;;;;;5022619;28;20186;-56
2021/07/27 00:37:34;;;;;;;5.20;4.10;;;17.50;99.90;;;;;;5022578;28;20636;-56
2021/07/27 00:40:00;;;;;;;4.60;4.20;;;17.40;99.90;;;;;;5019070;28;20293;-57
2021/07/27 00:42:26;;;;;;;5.00;4.60;;;17.20;99.90;;;;;;5017810;28;20190;-56
2021/07/27 00:44:52;;;;;;;5.27;4.30;;;17.30;99.90;;;;;;5022409;28;20187;-56
2021/07/27 00:47:18;;;;;;;6.15;5.18;;;17.30;99.90;;;;;;5021273;28;20196;-57
2021/07/27 00:49:44;;;;;;;6.53;4.40;;;17.70;99.90;;;;;;5016515;28;20277;-56
2021/07/27 00:52:10;;;;;;;6.33;4.53;;;17.50;99.90;;;;;;5014460;28;20445;-56
2021/07/27 00:54:37;;;;;;;3.90;3.60;;;17.40;99.90;;;;;;5021134;28;20459;-56
2021/07/27 00:57:04;;;;;;;4.63;4.22;;;17.40;99.90;;;;;;5013772;28;20440;-56
2021/07/27 00:59:30;;;;;;;4.50;4.20;;;17.40;99.90;;;;;;5019184;28;20579;-57
2021/07/27 01:01:55;;;;;;;4.70;4.30;;;17.40;99.90;;;;;;5021963;28;20228;-56
2021/07/27 01:04:21;;;;;;;4.67;4.27;;;17.40;99.90;;;;;;5037692;28;20182;-57
2021/07/27 01:06:47;;;;;;;4.83;4.27;;;17.20;99.90;;;;;;5015739;28;20213;-56
2021/07/27 01:09:13;;;;;;;5.53;4.40;;;17.30;99.90;;;;;;5013190;28;20276;-57
2021/07/27 01:11:43;;;;;;;5.53;4.70;;;17.40;99.90;;;;;;5015619;28;20328;-57
2021/07/27 01:14:09;;;;;;;5.43;4.35;;;17.40;99.90;;;;;;5018959;28;20190;-56
2021/07/27 01:16:36;;;;;;;5.90;4.45;;;17.10;99.90;;;;;;5015810;28;20178;-56
2021/07/27 01:41:07;;;;;;;4.80;4.40;;;17.10;99.90;;;;;;5031030;28;20592;-56
2021/07/27 01:43:29;;;;;;;5.22;4.72;;;17.10;99.90;;;;;;5028596;28;20219;-56
2021/07/27 01:45:55;;;;;;;5.95;5.45;;;17.00;99.90;;;;;;5016210;28;20202;-57
2021/07/27 01:48:27;;;;;;;5.33;4.83;;;17.10;99.90;;;;;;5018800;28;20217;-57
2021/07/27 01:50:53;;;;;;;6.25;5.35;;;17.10;99.90;;;;;;5012911;28;20669;-58
2021/07/27 01:53:38;;;;;;;4.03;3.73;;;17.10;99.90;;;;;;5016799;28;20261;-56
2021/07/27 01:56:04;;;;;;;4.80;4.32;;;17.10;99.90;;;;;;5009581;28;20185;-56
2021/07/27 01:58:30;;;;;;;4.40;4.00;;;17.10;99.90;;;;;;5017591;28;20683;-56
2021/07/27 02:00:56;;;;;;;5.40;4.80;;;17.00;99.90;;;;;;5017355;28;20887;-57
2021/07/27 02:03:25;;;;;;;4.60;4.30;;;17.00;99.90;;;;;;5032755;28;20479;-56
2021/07/27 02:05:51;;;;;;;4.97;4.53;;;16.90;99.90;;;;;;5019497;28;20512;-56
2021/07/27 02:08:16;;;;;;;5.23;4.83;;;16.90;99.90;;;;;;5017683;28;20719;-56
2021/07/27 02:10:46;;;;;;;5.40;5.00;;;17.00;99.90;;;;;;5006044;28;20549;-56
2021/07/27 02:13:13;;;;;;;5.50;5.00;;;17.20;99.90;;;;;;5020447;28;20328;-57
2021/07/27 02:15:43;;;;;;;5.05;4.65;;;17.10;99.90;;;;;;5017638;28;20186;-56
2021/07/27 02:18:09;;;;;;;5.50;4.80;;;16.70;99.90;;;;;;5022746;28;20190;-56
2021/07/27 02:20:36;;;;;;;5.00;4.43;;;17.10;99.90;;;;;;5018838;28;20221;-56
2021/07/27 02:23:05;;;;;;;6.38;5.57;;;16.50;99.90;;;;;;5014834;28;20186;-57
2021/07/27 02:25:32;;;;;;;5.10;4.60;;;16.80;99.90;;;;;;5016872;28;20182;-57
2021/07/27 02:27:58;;;;;;;5.80;5.20;;;16.70;99.90;;;;;;5013326;28;20220;-56
2021/07/27 02:30:30;;;;;;;5.80;5.20;;;17.00;99.90;;;;;;5012263;28;20214;-56
2021/07/27 02:32:56;;;;;;;6.45;5.18;;;16.70;99.90;;;;;;5016528;28;20213;-56
2021/07/27 02:35:23;;;;;;;5.60;4.80;;;16.40;99.90;;;;;;5019322;28;20276;-57
2021/07/27 02:37:49;;;;;;;6.93;5.75;;;16.80;99.90;;;;;;5015988;28;20228;-57
2021/07/27 02:40:15;;;;;;;6.33;4.90;;;16.60;99.90;;;;;;5019594;28;20623;-57
2021/07/27 02:42:40;;;;;;;6.60;5.60;;;16.70;99.90;;;;;;5014491;28;20175;-56
2021/07/27 02:45:11;;;;;;;8.00;5.30;;;16.80;99.90;;;;;;5016480;28;20185;-56
2021/07/27 02:47:39;;;;;;;6.25;5.55;;;16.90;99.90;;;;;;5019228;28;20531;-56
2021/07/27 02:50:06;;;;;;;6.78;5.30;;;16.80;99.90;;;;;;5015566;28;20794;-56
2021/07/27 02:52:33;;;;;;;6.03;5.10;;;16.70;99.90;;;;;;5012181;28;20659;-57
2021/07/27 02:54:58;;;;;;;5.97;5.47;;;16.70;99.90;;;;;;5019240;28;20189;-57
2021/07/27 02:57:24;;;;;;;6.23;5.30;;;16.60;99.90;;;;;;5034012;28;20194;-56
2021/07/27 02:59:49;;;;;;;4.70;4.30;;;16.90;99.90;;;;;;5018822;28;20380;-56
2021/07/27 03:02:19;;;;;;;6.90;5.03;;;16.80;99.90;;;;;;5016374;28;20185;-56
2021/07/27 03:04:45;;;;;;;5.00;4.60;;;16.70;99.90;;;;;;5014636;28;20564;-56
2021/07/27 03:07:18;;;;;;;7.90;5.40;;;16.70;99.90;;;;;;5018365;28;20185;-57
2021/07/27 03:12:28;;;;;;;7.97;5.68;;;16.80;99.90;;;;;;5018753;28;20202;-56
2021/07/27 03:14:59;;;;;;;7.17;5.67;;;16.70;99.90;;;;;;5013806;28;20184;-56
2021/07/27 03:17:26;;;;;;;5.72;5.22;;;16.80;99.90;;;;;;5024020;28;20178;-56
2021/07/27 03:19:54;;;;;;;5.07;4.57;;;16.90;99.90;;;;;;5016591;28;20214;-57
2021/07/27 03:22:20;;;;;;;5.10;4.65;;;16.90;99.90;;;;;;5017761;28;20182;-56
2021/07/27 03:24:48;;;;;;;5.57;5.07;;;16.80;99.90;;;;;;5013151;28;20178;-56
2021/07/27 03:27:14;;;;;;;5.90;5.40;;;16.90;99.90;;;;;;5015100;28;20276;-56
2021/07/27 03:29:41;;;;;;;5.13;4.70;;;16.90;99.90;;;;;;5012291;28;20652;-56
2021/07/27 03:32:06;;;;;;;4.60;4.30;;;16.70;99.90;;;;;;5015725;28;20437;-57
2021/07/27 03:34:32;;;;;;;9.07;6.30;;;16.90;99.90;;;;;;5010271;28;20640;-57
2021/07/27 03:36:58;;;;;;;6.30;5.63;;;17.00;99.90;;;;;;5026107;28;20178;-57
2021/07/27 03:39:23;;;;;;;6.10;5.30;;;17.10;99.90;;;;;;5009969;28;20289;-56
2021/07/27 03:41:49;;;;;;;5.67;5.03;;;16.80;99.90;;;;;;5018339;28;20202;-56
2021/07/27 03:44:15;;;;;;;7.27;6.40;;;16.80;99.90;;;;;;5022024;28;20185;-56
2021/07/27 03:46:43;;;;;;;8.70;5.40;;;17.00;99.90;;;;;;5018414;28;20292;-57
2021/07/27 03:49:09;;;;;;;6.43;5.38;;;16.80;99.90;;;;;;5012360;28;20187;-57
2021/07/27 03:51:35;;;;;;;6.73;5.70;;;16.80;99.90;;;;;;5017121;28;20205;-56
2021/07/27 03:54:00;;;;;;;8.00;5.57;;;17.00;99.90;;;;;;5012513;28;20679;-57
2021/07/27 03:56:26;;;;;;;6.80;5.67;;;16.80;99.90;;;;;;5018002;28;20312;-57
2021/07/27 03:58:51;;;;;;;6.40;5.90;;;16.90;99.90;;;;;;5016312;28;20249;-57
2021/07/27 04:01:17;;;;;;;6.23;5.53;;;16.80;99.90;;;;;;5016460;28;20194;-57
2021/07/27 04:03:43;;;;;;;6.83;5.70;;;17.00;99.90;;;;;;5017593;28;20228;-57
2021/07/27 04:06:08;;;;;;;6.60;6.00;;;16.90;99.90;;;;;;5039976;28;20174;-57
2021/07/27 04:08:34;;;;;;;6.97;6.27;;;16.80;99.90;;;;;;5032074;28;20421;-56
2021/07/27 04:11:01;;;;;;;6.63;5.23;;;16.90;99.90;;;;;;5019568;28;20337;-57
2021/07/27 04:13:30;;;;;;;6.68;5.97;;;16.90;99.90;;;;;;5011324;28;20558;-58
2021/07/27 04:15:57;;;;;;;7.25;6.20;;;16.90;99.90;;;;;;5008921;28;20186;-59
2021/07/27 04:18:23;;;;;;;7.32;6.35;;;16.80;99.90;;;;;;5011388;28;20182;-58
2021/07/27 04:20:48;;;;;;;6.67;5.23;;;16.80;99.90;;;;;;5011349;28;20228;-58
2021/07/27 04:23:14;;;;;;;7.40;6.70;;;16.80;99.90;;;;;;5012254;28;20545;-58
2021/07/27 04:25:40;;;;;;;7.43;6.37;;;16.80;99.90;;;;;;5008517;28;20179;-60
2021/07/27 04:28:05;;;;;;;7.27;6.53;;;16.70;99.90;;;;;;5008872;28;20243;-58
2021/07/27 04:30:33;;;;;;;6.90;6.30;;;16.70;99.90;;;;;;5008285;28;20249;-57
2021/07/27 04:32:58;;;;;;;6.18;5.57;;;16.80;99.90;;;;;;5010462;28;20185;-58
2021/07/27 04:35:24;;;;;;;7.93;6.10;;;16.70;99.90;;;;;;5009710;28;20184;-59
2021/07/27 04:37:51;;;;;;;7.20;6.37;;;16.70;99.90;;;;;;5011999;28;20185;-59
2021/07/27 04:40:17;;;;;;;6.25;5.55;;;16.70;99.90;;;;;;5008171;28;20210;-57
2021/07/27 04:42:42;;;;;;;6.70;6.10;;;16.70;99.90;;;;;;5027463;28;20685;-59
2021/07/27 04:45:08;;;;;;;6.10;5.50;;;16.70;99.90;;;;;;5028992;28;20191;-57
2021/07/27 04:47:34;;;;;;;7.10;6.10;;;16.60;99.90;;;;;;5013287;28;20194;-57
2021/07/27 04:49:59;;;;;;;6.53;5.83;;;16.80;99.90;;;;;;5018739;28;20474;-58
2021/07/27 04:52:25;;;;;;;9.20;6.17;;;16.80;99.90;;;;;;5007586;28;20273;-56
2021/07/27 04:54:55;;;;;;;7.20;5.70;;;16.90;99.90;;;;;;5008231;28;20720;-56
2021/07/27 04:57:21;;;;;;;6.90;6.20;;;16.90;99.90;;;;;;5005633;28;20213;-56
2021/07/27 04:59:46;;;;;;;6.80;6.17;;;17.00;99.90;;;;;;5004527;28;20230;-56
2021/07/27 05:02:12;;;;;;;6.63;6.00;;;17.10;99.90;;;;;;5007714;28;20252;-57
2021/07/27 05:04:38;;;;;;;10.90;5.90;;;17.10;99.90;;;;;;5009644;28;20171;-56
2021/07/27 05:07:04;;;;;;;6.30;5.70;;;17.00;99.90;;;;;;5010041;28;20464;-57
2021/07/27 05:09:29;;;;;;;6.20;5.60;;;17.30;99.90;;;;;;5014216;28;20236;-57
2021/07/27 05:11:58;;;;;;;6.00;5.50;;;17.40;99.90;;;;;;5023566;28;20463;-57
2021/07/27 05:14:24;;;;;;;7.10;5.82;;;17.50;99.90;;;;;;5014830;28;20715;-58
2021/07/27 05:16:50;;;;;;;6.60;5.85;;;17.50;99.90;;;;;;5013788;28;20190;-57
2021/07/27 05:19:16;;;;;;;6.10;5.50;;;17.60;99.90;;;;;;5018800;28;20204;-57
2021/07/27 05:21:41;;;;;;;6.40;5.80;;;17.60;99.90;;;;;;5014304;28;20202;-56
2021/07/27 05:24:07;;;;;;;7.27;5.43;;;17.70;99.90;;;;;;5011220;28;20635;-57
2021/07/27 05:26:32;;;;;;;6.60;5.37;;;17.70;99.90;;;;;;5030861;28;20204;-57
2021/07/27 05:28:58;;;;;;;6.20;5.70;;;17.80;99.90;;;;;;5018326;28;20213;-56
2021/07/27 05:31:27;;;;;;;6.67;6.07;;;17.90;99.90;;;;;;5012630;28;20241;-57
2021/07/27 05:33:52;;;;;;;8.73;6.43;;;18.10;99.90;;;;;;5017714;28;20490;-56
2021/07/27 05:36:18;;;;;;;7.67;5.80;;;18.20;99.90;;;;;;5008189;28;20643;-58
2021/07/27 05:38:43;;;;;;;8.40;6.57;;;18.20;99.90;;;;;;5015535;28;20235;-58
2021/07/27 05:41:09;;;;;;;11.20;6.30;;;18.40;99.90;;;;;;5008796;28;20642;-57
2021/07/27 05:43:37;;;;;;;6.87;6.20;;;18.40;99.90;;;;;;5007562;28;20243;-57
2021/07/27 05:46:03;;;;;;;5.93;5.43;;;18.50;99.90;;;;;;5021814;28;20194;-57
2021/07/27 05:48:29;;;;;;;8.05;6.50;;;18.60;99.90;;;;;;5006833;28;20208;-57
2021/07/27 05:50:54;;;;;;;7.40;6.00;;;18.70;99.90;;;;;;5004207;28;20678;-57
2021/07/27 05:53:20;;;;;;;6.90;6.07;;;18.70;99.90;;;;;;5008092;28;20278;-57
2021/07/27 05:55:45;;;;;;;6.83;6.23;;;18.80;99.90;;;;;;5023752;28;20200;-58
2021/07/27 05:58:11;;;;;;;7.30;6.60;;;19.00;99.90;;;;;;5008443;28;20547;-57
2021/07/27 06:00:37;;;;;;;7.60;6.30;;;19.20;99.90;;;;;;5011591;28;20229;-57
2021/07/27 06:03:04;;;;;;;6.13;5.63;;;19.30;99.90;;;;;;5023356;28;20187;-57
2021/07/27 06:05:29;;;;;;;6.70;5.88;;;19.40;99.90;;;;;;5022484;28;20212;-56
2021/07/27 06:07:55;;;;;;;6.43;5.83;;;19.50;99.90;;;;;;5012926;28;20186;-58
2021/07/27 06:10:20;;;;;;;6.70;5.80;;;19.60;99.90;;;;;;5022654;28;20206;-58
2021/07/27 06:12:46;;;;;;;9.17;5.93;;;19.70;99.90;;;;;;5010007;28;20178;-57
2021/07/27 06:15:12;;;;;;;8.83;7.93;;;19.90;99.90;;;;;;5012751;28;20174;-58
2021/07/27 06:17:37;;;;;;;7.30;6.60;;;20.10;99.90;;;;;;5019384;28;20194;-57
2021/07/27 06:20:04;;;;;;;6.23;5.13;;;20.30;99.90;;;;;;5013262;28;20217;-57
2021/07/27 06:22:29;;;;;;;6.03;5.45;;;20.50;99.90;;;;;;5012254;28;20578;-58
2021/07/27 06:24:55;;;;;;;6.07;4.80;;;20.80;99.90;;;;;;5020537;28;20197;-58
2021/07/27 06:27:21;;;;;;;7.77;5.60;;;21.00;99.90;;;;;;5026217;28;20198;-57
2021/07/27 06:29:47;;;;;;;5.43;5.03;;;21.20;99.90;;;;;;5015248;28;20207;-58
2021/07/27 06:32:13;;;;;;;5.30;4.80;;;21.30;99.90;;;;;;5011079;28;20437;-57
2021/07/27 06:34:38;;;;;;;5.70;5.20;;;21.50;99.90;;;;;;5016497;28;20537;-58
2021/07/27 06:37:04;;;;;;;7.30;5.30;;;21.70;99.90;;;;;;5013113;28;20190;-57
2021/07/27 06:39:30;;;;;;;6.80;6.10;;;21.80;99.90;;;;;;5017062;28;20198;-57
2021/07/27 06:41:55;;;;;;;6.20;5.20;;;21.80;99.90;;;;;;5016269;28;20675;-56
2021/07/27 06:44:22;;;;;;;5.73;5.23;;;22.00;99.90;;;;;;5014367;28;20516;-56
2021/07/27 06:46:48;;;;;;;6.03;4.80;;;22.00;99.90;;;;;;5011014;28;20666;-57
2021/07/27 06:49:15;;;;;;;6.20;5.50;;;22.10;99.90;;;;;;5010232;28;20190;-56
2021/07/27 06:51:42;;;;;;;6.10;5.50;;;22.30;99.90;;;;;;5012391;28;20795;-58
2021/07/27 06:54:09;;;;;;;7.97;5.30;;;22.30;99.90;;;;;;5009135;28;20544;-57
2021/07/27 06:56:37;;;;;;;13.03;5.53;;;22.40;99.90;;;;;;5014539;28;20194;-57
2021/07/27 06:59:03;;;;;;;5.67;5.17;;;22.60;99.90;;;;;;5007489;28;20473;-57
2021/07/27 07:01:29;;;;;;;5.37;4.83;;;22.70;99.90;;;;;;5007055;28;20531;-57
2021/07/27 07:03:54;;;;;;;5.43;4.87;;;23.00;99.90;;;;;;5025149;28;20447;-57
2021/07/27 07:06:20;;;;;;;5.80;5.03;;;23.30;99.90;;;;;;5020853;28;20513;-56
2021/07/27 07:08:47;;;;;;;5.80;5.30;;;24.20;99.90;;;;;;5009880;28;20170;-57
2021/07/27 07:11:13;;;;;;;7.77;6.10;;;25.60;99.90;;;;;;5025898;28;20315;-57
2021/07/27 07:13:38;;;;;;;5.03;4.60;;;26.90;97.40;;;;;;5004962;28;20879;-57
2021/07/27 07:16:08;;;;;;;7.07;4.50;;;27.50;94.50;;;;;;5017446;28;20196;-56
2021/07/27 07:18:34;;;;;;;5.40;4.80;;;28.60;92.20;;;;;;5010035;28;20208;-57
2021/07/27 07:21:03;;;;;;;5.60;4.37;;;29.50;88.10;;;;;;5018055;28;20522;-58
2021/07/27 07:23:29;;;;;;;6.17;5.67;;;29.40;89.30;;;;;;5007593;28;20677;-56
2021/07/27 07:25:55;;;;;;;5.80;4.60;;;30.70;84.80;;;;;;5013919;28;20443;-55
2021/07/27 07:28:20;;;;;;;4.20;3.90;;;30.80;81.00;;;;;;5009466;28;20289;-55
2021/07/27 07:30:47;;;;;;;4.27;3.87;;;31.20;79.30;;;;;;5014104;28;20547;-55
2021/07/27 07:33:13;;;;;;;4.70;4.30;;;32.50;73.90;;;;;;5018115;28;20186;-56
2021/07/27 07:35:39;;;;;;;4.70;4.30;;;32.30;70.60;;;;;;5011945;28;20472;-56
2021/07/27 07:38:05;;;;;;;5.10;4.70;;;31.60;70.90;;;;;;5007950;28;21033;-56
2021/07/27 07:40:32;;;;;;;4.37;4.07;;;30.20;75.10;;;;;;5008820;28;20227;-56
2021/07/27 07:43:01;;;;;;;6.00;5.50;;;30.30;75.50;;;;;;5008350;28;20528;-56
2021/07/27 07:45:27;;;;;;;5.80;5.30;;;30.60;75.60;;;;;;5016143;28;20479;-57
2021/07/27 07:47:53;;;;;;;5.50;5.00;;;31.40;72.90;;;;;;5010540;28;20433;-56
2021/07/27 07:50:19;;;;;;;6.50;4.83;;;32.20;69.70;;;;;;5014200;28;20464;-58
2021/07/27 07:52:45;;;;;;;5.43;4.97;;;32.20;68.30;;;;;;5010870;28;20273;-56
2021/07/27 07:55:11;;;;;;;5.37;4.87;;;33.20;65.80;;;;;;5007487;28;20536;-56
2021/07/27 07:57:38;;;;;;;6.00;5.43;;;34.00;62.60;;;;;;5011492;28;20193;-57
2021/07/27 08:00:05;;;;;;;8.67;4.50;;;34.80;58.90;;;;;;5008591;28;20534;-56
2021/07/27 08:02:31;;;;;;;4.77;4.37;;;35.20;58.40;;;;;;5015807;28;20445;-55
2021/07/27 08:04:56;;;;;;;5.60;5.20;;;34.70;58.10;;;;;;5009736;28;20421;-56
2021/07/27 08:07:24;;;;;;;4.83;4.53;;;33.90;60.30;;;;;;5010885;28;20213;-57
2021/07/27 08:09:49;;;;;;;5.97;5.47;;;33.60;59.90;;;;;;5012414;28;20571;-55
2021/07/27 08:12:18;;;;;;;5.37;4.97;;;33.10;60.60;;;;;;5016396;28;20440;-57
2021/07/27 08:14:44;;;;;;;4.63;4.23;;;33.10;61.10;;;;;;5009885;28;20643;-57
2021/07/27 08:17:11;;;;;;;4.93;4.50;;;32.00;62.40;;;;;;5004757;28;20443;-58
2021/07/27 08:19:36;;;;;;;5.83;4.90;;;32.00;64.90;;;;;;5009130;28;20202;-56
2021/07/27 08:22:03;;;;;;;5.10;4.70;;;32.80;62.70;;;;;;5009287;28;20464;-57
2021/07/27 08:24:31;;;;;;;5.23;4.43;;;32.00;63.90;;;;;;5013437;28;20644;-57
2021/07/27 08:26:56;;;;;;;5.00;4.60;;;32.20;64.10;;;;;;5010162;28;20443;-56
2021/07/27 08:29:22;;;;;;;5.13;4.53;;;32.00;64.20;;;;;;5015799;28;20836;-57
2021/07/27 08:31:49;;;;;;;5.40;4.90;;;31.30;64.50;;;;;;5007175;28;20214;-55
2021/07/27 08:34:17;;;;;;;5.73;5.23;;;31.30;67.10;;;;;;5013574;28;20185;-56
2021/07/27 08:36:44;;;;;;;5.50;5.00;;;30.70;66.60;;;;;;5011521;28;20940;-56
2021/07/27 08:39:09;;;;;;;5.57;5.17;;;30.60;66.30;;;;;;5015613;28;20551;-56
2021/07/27 08:41:37;;;;;;;5.47;5.07;;;30.50;65.50;;;;;;5014701;28;20542;-56
2021/07/27 08:44:08;;;;;;;5.90;5.40;;;30.10;66.20;;;;;;5010734;28;20334;-57
2021/07/27 08:46:34;;;;;;;7.27;6.77;;;30.10;67.20;;;;;;5015294;28;20486;-56
2021/07/27 08:48:59;;;;;;;6.50;5.90;;;29.60;63.60;;;;;;5013403;28;20478;-57
2021/07/27 08:51:25;;;;;;;5.80;5.23;;;30.00;65.90;;;;;;5015138;28;20290;-56
2021/07/27 08:53:51;;;;;;;6.47;4.70;;;30.20;64.60;;;;;;5017254;28;20570;-56
2021/07/27 08:56:17;;;;;;;4.53;4.07;;;30.40;65.80;;;;;;5011129;28;20535;-56
2021/07/27 08:58:43;;;;;;;5.30;4.87;;;31.30;62.50;;;;;;5033066;28;20207;-57
2021/07/27 09:01:08;;;;;;;5.93;4.47;;;32.10;61.70;;;;;;5012517;28;20463;-56
2021/07/27 09:03:34;;;;;;;5.40;5.00;;;32.40;58.80;;;;;;5017640;28;20193;-57
2021/07/27 09:06:06;;;;;;;5.37;4.87;;;32.40;59.40;;;;;;5034869;28;20193;-56
2021/07/27 09:08:32;;;;;;;5.47;4.97;;;32.50;59.00;;;;;;5011024;28;20182;-54
2021/07/27 09:11:00;;;;;;;5.47;4.97;;;32.90;58.00;;;;;;5015890;28;20458;-54
2021/07/27 09:13:32;;;;;;;5.10;4.70;;;33.50;57.10;;;;;;5015253;28;20483;-54
2021/07/27 09:15:58;;;;;;;6.47;5.20;;;33.30;57.60;;;;;;5018421;28;20443;-55
2021/07/27 09:18:24;;;;;;;5.80;5.30;;;34.30;56.50;;;;;;5013783;28;20478;-56
2021/07/27 09:20:51;;;;;;;5.90;5.50;;;34.90;54.40;;;;;;5023560;28;20495;-56
2021/07/27 09:23:17;;;;;;;6.27;5.67;;;35.50;53.50;;;;;;5016900;28;20185;-54
2021/07/27 09:25:47;;;;;;;6.40;5.80;;;36.40;52.20;;;;;;5017674;28;20776;-55
2021/07/27 09:28:14;;;;;;;5.43;4.70;;;36.60;50.80;;;;;;5014160;28;20519;-57
2021/07/27 09:30:42;;;;;;;5.23;4.73;;;35.70;51.30;;;;;;5012365;28;20539;-57
2021/07/27 09:33:09;;;;;;;5.53;5.03;;;35.90;51.40;;;;;;5018206;28;20441;-57
2021/07/27 09:35:35;;;;;;;5.07;4.57;;;35.50;50.70;;;;;;5017299;28;20449;-57
2021/07/27 09:38:15;;;;;;;5.07;4.70;;;34.90;51.80;;;;;;5008171;28;20434;-57
2021/07/27 09:41:08;;;;;;;6.30;5.80;;;35.00;51.30;;;;;;5007853;28;20880;-57
2021/07/27 09:43:34;;;;;;;5.50;5.07;;;36.30;50.20;;;;;;5024367;28;20456;-56
2021/07/27 09:46:01;;;;;;;8.13;7.27;;;37.20;47.90;;;;;;5029095;28;20460;-57
2021/07/27 09:48:28;;;;;;;4.97;4.67;;;37.60;48.10;;;;;;5018934;28;20197;-58
2021/07/27 09:50:55;;;;;;;5.83;5.30;;;37.10;47.20;;;;;;5016148;28;20973;-57
2021/07/27 09:53:22;;;;;;;5.10;4.70;;;36.70;48.10;;;;;;5011458;28;20422;-57
2021/07/27 09:55:48;;;;;;;5.07;4.70;;;37.10;48.10;;;;;;5024454;28;20437;-57
2021/07/27 09:58:14;;;;;;;5.80;5.30;;;37.20;47.30;;;;;;5024369;28;20437;-57
2021/07/27 10:01:12;;;;;;;5.80;5.20;;;36.70;47.00;;;;;;5013335;28;20578;-58
2021/07/27 10:04:03;;;;;;;5.53;5.03;;;35.10;49.00;;;;;;5027353;28;20528;-57
2021/07/27 10:06:37;;;;;;;6.20;5.70;;;34.60;49.70;;;;;;5041946;28;20444;-57
2021/07/27 10:09:04;;;;;;;5.10;4.70;;;35.20;50.30;;;;;;5017602;28;21044;-57
2021/07/27 10:11:43;;;;;;;5.03;4.63;;;35.60;48.70;;;;;;5032061;28;20464;-57
2021/07/27 10:14:11;;;;;;;4.90;4.60;;;36.10;47.10;;;;;;5019560;28;20436;-58
2021/07/27 10:16:37;;;;;;;6.30;4.97;;;36.20;47.80;;;;;;5023174;28;20449;-57
2021/07/27 10:19:20;;;;;;;5.47;4.50;;;35.20;47.00;;;;;;5021879;28;20539;-57
2021/07/27 10:21:48;;;;;;;5.03;4.63;;;34.30;49.50;;;;;;5019515;28;20464;-58
2021/07/27 10:24:19;;;;;;;5.50;5.10;;;33.50;50.10;;;;;;5025892;28;20429;-57
2021/07/27 10:26:45;;;;;;;5.03;4.63;;;32.20;51.80;;;;;;5023997;28;20440;-57
2021/07/27 10:29:11;;;;;;;5.30;4.80;;;32.00;52.30;;;;;;5013557;28;20903;-57
2021/07/27 10:31:45;;;;;;;4.60;4.20;;;31.90;53.30;;;;;;5016949;28;20522;-57
2021/07/27 10:34:12;;;;;;;5.70;5.20;;;31.40;54.30;;;;;;5008455;28;21003;-58
2021/07/27 10:36:42;;;;;;;5.27;4.87;;;30.70;57.20;;;;;;5013507;28;20463;-56
2021/07/27 10:39:18;;;;;;;5.60;5.10;;;30.20;58.30;;;;;;5008673;28;20460;-56
2021/07/27 10:41:49;;;;;;;4.53;4.13;;;29.80;58.10;;;;;;5005462;28;20493;-56
2021/07/27 10:44:16;;;;;;;4.40;4.10;;;29.80;58.20;;;;;;5026638;28;20939;-56
2021/07/27 10:46:47;;;;;;;4.83;4.43;;;29.30;57.60;;;;;;5012832;28;20993;-56
2021/07/27 10:49:25;;;;;;;5.27;4.87;;;29.20;58.30;;;;;;5011308;28;20438;-56
2021/07/27 10:51:52;;;;;;;5.30;4.80;;;29.20;58.80;;;;;;5020382;28;20468;-56
2021/07/27 10:54:27;;;;;;;4.70;4.27;;;29.00;59.70;;;;;;5015795;28;20793;-56
2021/07/27 10:57:04;;;;;;;4.73;4.33;;;28.90;59.90;;;;;;5009959;28;20450;-55
2021/07/27 10:59:32;;;;;;;4.80;4.40;;;28.70;60.90;;;;;;5011313;28;20543;-55
2021/07/27 11:02:10;;;;;;;4.60;4.20;;;28.50;61.20;;;;;;5010276;28;20923;-57
2021/07/27 11:04:35;;;;;;;4.93;4.53;;;28.70;61.00;;;;;;5012492;28;20436;-57
2021/07/27 11:07:13;;;;;;;5.50;5.10;;;28.70;62.20;;;;;;5013938;28;20932;-57
2021/07/27 11:09:51;;;;;;;4.90;4.50;;;29.00;60.30;;;;;;5028588;28;20189;-58
2021/07/27 11:12:33;;;;;;;4.50;4.20;;;29.40;60.70;;;;;;5021373;28;20478;-56
2021/07/27 11:15:23;;;;;;;5.30;4.80;;;30.20;59.00;;;;;;5007469;28;20877;-56
2021/07/27 11:17:51;;;;;;;5.07;4.57;;;30.20;58.80;;;;;;5012837;28;20455;-56
2021/07/27 11:20:23;;;;;;;5.07;4.67;;;30.60;58.40;;;;;;5010891;28;20488;-56
2021/07/27 11:23:19;;;;;;;4.93;4.43;;;31.10;59.60;;;;;;5012851;28;20437;-56
2021/07/27 11:25:53;;;;;;;4.70;4.40;;;32.30;55.80;;;;;;5010461;28;20943;-55
2021/07/27 11:28:19;;;;;;;4.90;4.40;;;32.30;54.90;;;;;;5012768;28;20941;-56
2021/07/27 11:30:46;;;;;;;4.67;4.27;;;32.90;53.90;;;;;;5010336;28;20472;-57
2021/07/27 11:33:12;;;;;;;5.27;4.87;;;32.80;54.00;;;;;;5005355;28;20494;-55
2021/07/27 11:35:55;;;;;;;4.90;4.53;;;32.10;54.50;;;;;;5012478;28;20510;-58
2021/07/27 11:38:28;;;;;;;4.90;4.40;;;31.90;55.20;;;;;;5010256;28;20489;-55
2021/07/27 11:41:21;;;;;;;5.10;4.70;;;31.40;56.20;;;;;;5011747;28;20489;-59
2021/07/27 11:43:49;;;;;;;5.37;4.97;;;30.40;57.50;;;;;;5023119;28;20802;-54
2021/07/27 11:46:19;;;;;;;5.27;4.87;;;29.90;59.80;;;;;;5017185;28;20992;-56
2021/07/27 11:48:55;;;;;;;4.27;3.87;;;30.20;59.90;;;;;;5010999;28;20466;-57
2021/07/27 11:51:31;;;;;;;4.50;4.10;;;30.20;57.00;;;;;;5011277;28;20459;-57
2021/07/27 11:53:57;;;;;;;4.77;4.37;;;29.90;57.80;;;;;;5010981;28;20498;-56
2021/07/27 11:56:23;;;;;;;4.37;4.07;;;29.70;58.10;;;;;;5008844;28;21009;-56
2021/07/27 11:59:02;;;;;;;4.57;4.17;;;29.60;58.90;;;;;;5011374;28;20249;-56
2021/07/27 12:01:42;;;;;;;5.47;4.97;;;29.10;59.50;;;;;;5011959;28;20551;-57
2021/07/27 12:04:08;;;;;;;5.50;5.00;;;28.70;60.10;;;;;;5006490;28;20511;-57
2021/07/27 12:07:04;;;;;;;4.30;4.00;;;28.30;61.20;;;;;;5012209;28;20464;-56
2021/07/27 12:09:29;;;;;;;4.97;4.57;;;28.50;64.30;;;;;;5008771;28;21190;-56
2021/07/27 12:11:55;;;;;;;4.53;4.13;;;28.60;60.60;;;;;;5011496;28;20465;-56
2021/07/27 12:14:20;;;;;;;4.40;4.10;;;28.40;62.30;;;;;;5012761;28;20620;-56
2021/07/27 12:16:49;;;;;;;4.40;4.10;;;28.50;61.10;;;;;;5016595;28;20293;-55
2021/07/27 12:19:15;;;;;;;4.33;3.93;;;28.80;60.90;;;;;;5017200;28;20261;-56
2021/07/27 12:21:41;;;;;;;4.20;3.90;;;28.70;61.30;;;;;;5021956;28;20460;-57
2021/07/27 12:24:07;;;;;;;3.93;3.53;;;28.70;60.50;;;;;;5014748;28;20488;-56
2021/07/27 12:26:35;;;;;;;4.10;3.70;;;28.70;59.90;;;;;;5016446;28;20186;-56
2021/07/27 12:29:01;;;;;;;4.23;3.93;;;28.70;60.60;;;;;;5010155;28;20478;-56
2021/07/27 12:31:26;;;;;;;4.13;3.83;;;28.60;62.10;;;;;;5016627;28;20582;-57
2021/07/27 12:33:52;;;;;;;4.30;4.00;;;28.60;62.10;;;;;;5015749;28;21004;-58
2021/07/27 12:36:18;;;;;;;5.63;5.00;;;28.60;62.40;;;;;;5013903;28;20186;-57
2021/07/27 12:38:43;;;;;;;5.10;4.60;;;28.80;63.60;;;;;;5014578;28;20183;-56
2021/07/27 12:41:09;;;;;;;4.00;3.70;;;28.90;62.10;;;;;;5015509;28;20208;-57
2021/07/27 12:43:35;;;;;;;4.00;3.67;;;28.80;60.90;;;;;;5019085;28;20204;-57
2021/07/27 12:46:00;;;;;;;4.50;4.10;;;29.00;59.60;;;;;;5012122;28;20601;-56
2021/07/27 12:48:26;;;;;;;4.27;3.97;;;29.10;59.70;;;;;;5014443;28;20461;-58
2021/07/27 12:50:52;;;;;;;6.67;4.33;;;29.20;59.90;;;;;;5013070;28;20575;-58
2021/07/27 12:53:17;;;;;;;4.60;4.27;;;29.20;61.60;;;;;;5016569;28;20184;-56
2021/07/27 12:55:43;;;;;;;4.00;3.60;;;29.30;60.70;;;;;;5014250;28;20176;-57
2021/07/27 12:58:09;;;;;;;4.73;4.33;;;29.20;59.30;;;;;;5021365;28;20188;-58
2021/07/27 13:00:34;;;;;;;4.27;3.97;;;29.10;59.40;;;;;;5022704;28;20788;-57
2021/07/27 13:03:00;;;;;;;4.10;3.80;;;29.00;58.40;;;;;;5009463;28;20187;-58
2021/07/27 13:05:25;;;;;;;4.33;3.97;;;28.80;59.10;;;;;;5014326;28;20190;-57
2021/07/27 13:07:54;;;;;;;4.00;3.70;;;28.80;59.40;;;;;;5018038;28;20696;-57
2021/07/27 13:10:20;;;;;;;4.70;4.30;;;28.50;59.90;;;;;;5021098;28;20222;-57
2021/07/27 13:12:46;;;;;;;4.17;3.80;;;28.50;59.20;;;;;;5018907;28;20524;-56